createdAt,value
2022-10-09T00:01:17.627Z,51.50
2022-10-09T00:03:46.836Z,51.40
2022-10-09T00:06:18.174Z,51.40
2022-10-09T00:08:45.422Z,51.50
2022-10-09T00:11:19.084Z,51.40
2022-10-09T00:13:47.603Z,51.30
2022-10-09T00:16:16.622Z,51.30
2022-10-09T00:18:46.183Z,51.20
2022-10-09T00:21:42.381Z,51.10
2022-10-09T00:24:09.426Z,51.10
2022-10-09T00:26:36.293Z,51.00
2022-10-09T00:29:03.658Z,51.00
2022-10-09T00:31:30.523Z,51.10
2022-10-09T00:33:57.290Z,51.00
2022-10-09T00:36:27.659Z,51.00
2022-10-09T00:38:57.250Z,50.90
2022-10-09T00:41:27.252Z,50.90
2022-10-09T00:43:56.900Z,50.80
2022-10-09T00:46:26.451Z,50.80
2022-10-09T00:49:08.175Z,50.70
2022-10-09T00:51:35.290Z,50.80
2022-10-09T00:54:05.026Z,50.50
2022-10-09T00:56:31.880Z,50.70
2022-10-09T00:58:58.821Z,50.60
2022-10-09T01:01:25.622Z,50.50
2022-10-09T01:03:52.438Z,50.60
2022-10-09T01:06:31.067Z,50.60
2022-10-09T01:09:07.657Z,50.60
2022-10-09T01:11:58.854Z,50.50
2022-10-09T01:14:34.099Z,50.50
2022-10-09T01:17:18.178Z,50.40
2022-10-09T01:20:04.351Z,50.30
2022-10-09T01:22:55.845Z,50.30
2022-10-09T01:25:33.224Z,50.20
2022-10-09T01:28:02.993Z,50.10
2022-10-09T01:30:30.818Z,50.20
2022-10-09T01:32:58.660Z,50.20
2022-10-09T01:35:26.060Z,50.60
2022-10-09T01:37:54.678Z,50.10
2022-10-09T01:40:22.923Z,50.10
2022-10-09T01:42:52.310Z,50.10
2022-10-09T01:45:19.062Z,50.10
2022-10-09T01:47:46.404Z,50.00
2022-10-09T01:50:27.309Z,50.00
2022-10-09T01:53:00.389Z,49.70
2022-10-09T01:55:44.931Z,49.90
2022-10-09T01:58:39.442Z,49.80
2022-10-09T02:01:13.732Z,49.80
2022-10-09T02:03:42.815Z,49.80
2022-10-09T02:06:12.733Z,49.80
2022-10-09T02:08:41.037Z,49.70
2022-10-09T02:11:08.152Z,49.70
2022-10-09T02:13:36.087Z,49.70
2022-10-09T02:16:11.444Z,49.70
2022-10-09T02:18:45.427Z,49.60
2022-10-09T02:21:26.220Z,49.70
2022-10-09T02:23:54.760Z,49.70
2022-10-09T02:26:21.640Z,49.40
2022-10-09T02:28:48.451Z,49.50
2022-10-09T02:31:22.927Z,49.50
2022-10-09T02:34:01.315Z,49.40
2022-10-09T02:36:29.773Z,49.50
2022-10-09T02:38:57.213Z,49.40
2022-10-09T02:41:24.770Z,49.30
2022-10-09T02:43:51.720Z,49.20
2022-10-09T02:46:18.988Z,49.80
2022-10-09T02:48:45.729Z,49.30
2022-10-09T02:51:12.610Z,49.20
2022-10-09T02:53:39.540Z,49.30
2022-10-09T02:56:06.548Z,49.20
2022-10-09T02:58:35.154Z,49.10
2022-10-09T03:01:02.227Z,49.00
2022-10-09T03:03:28.957Z,49.10
2022-10-09T03:06:02.572Z,49.10
2022-10-09T03:08:29.529Z,49.20
2022-10-09T03:10:56.740Z,49.00
2022-10-09T03:13:23.905Z,49.00
2022-10-09T03:15:50.698Z,49.00
2022-10-09T03:18:17.498Z,48.90
2022-10-09T03:20:44.253Z,49.00
2022-10-09T03:23:11.816Z,48.90
2022-10-09T03:25:38.561Z,49.00
2022-10-09T03:28:05.317Z,48.80
2022-10-09T03:30:32.121Z,49.40
2022-10-09T03:32:58.897Z,48.80
2022-10-09T03:35:25.679Z,48.80
2022-10-09T03:37:52.413Z,48.80
2022-10-09T03:40:19.197Z,48.80
2022-10-09T03:42:48.242Z,48.80
2022-10-09T03:45:19.792Z,48.70
2022-10-09T03:47:46.480Z,48.60
2022-10-09T03:50:13.181Z,48.60
2022-10-09T03:52:40.995Z,48.60
2022-10-09T03:55:08.247Z,48.50
2022-10-09T03:57:35.627Z,48.60
2022-10-09T04:00:02.454Z,48.50
2022-10-09T04:02:29.213Z,48.40
2022-10-09T04:04:55.947Z,48.50
2022-10-09T04:07:22.642Z,48.50
2022-10-09T04:09:49.369Z,48.60
2022-10-09T04:12:16.531Z,48.40
2022-10-09T04:14:43.273Z,48.40
2022-10-09T04:17:10.068Z,48.30
2022-10-09T04:19:36.772Z,48.40
2022-10-09T04:22:03.630Z,48.40
2022-10-09T04:24:32.705Z,48.40
2022-10-09T04:26:59.408Z,48.40
2022-10-09T04:29:26.164Z,48.30
2022-10-09T04:31:53.049Z,48.30
2022-10-09T04:34:19.884Z,48.30
2022-10-09T04:36:46.628Z,48.30
2022-10-09T04:39:13.437Z,48.20
2022-10-09T04:41:40.153Z,48.10
2022-10-09T04:44:07.186Z,48.10
2022-10-09T04:46:33.969Z,48.10
2022-10-09T04:49:00.703Z,48.00
2022-10-09T04:51:27.719Z,47.90
2022-10-09T04:54:00.321Z,48.10
2022-10-09T04:56:27.432Z,48.10
2022-10-09T04:58:54.577Z,47.90
2022-10-09T05:01:23.462Z,48.00
2022-10-09T05:03:53.968Z,47.90
2022-10-09T05:06:25.320Z,48.00
2022-10-09T05:08:53.143Z,47.80
2022-10-09T05:11:22.923Z,47.90
2022-10-09T05:13:52.132Z,47.80
2022-10-09T05:16:22.165Z,47.90
2022-10-09T05:18:51.361Z,47.90
2022-10-09T05:21:19.040Z,47.80
2022-10-09T05:23:49.570Z,47.80
2022-10-09T05:26:18.741Z,47.80
2022-10-09T05:28:46.200Z,47.80
2022-10-09T05:31:27.521Z,47.90
2022-10-09T05:33:55.961Z,47.80
2022-10-09T05:36:23.992Z,47.70
2022-10-09T05:38:50.685Z,47.80
2022-10-09T05:41:19.389Z,47.70
2022-10-09T05:43:48.105Z,47.70
2022-10-09T05:46:20.363Z,47.60
2022-10-09T05:48:55.349Z,47.60
2022-10-09T05:51:32.891Z,47.70
2022-10-09T05:54:02.191Z,47.60
2022-10-09T05:56:37.513Z,47.60
2022-10-09T05:59:06.870Z,47.60
2022-10-09T06:01:36.031Z,47.60
2022-10-09T06:04:03.901Z,47.60
2022-10-09T06:06:37.041Z,47.70
2022-10-09T06:09:04.703Z,47.60
2022-10-09T06:11:34.506Z,47.60
2022-10-09T06:14:03.346Z,47.50
2022-10-09T06:16:32.619Z,47.50
2022-10-09T06:19:02.254Z,47.60
2022-10-09T06:21:29.252Z,47.60
2022-10-09T06:23:58.710Z,47.50
2022-10-09T06:26:29.054Z,47.70
2022-10-09T06:28:56.911Z,47.70
2022-10-09T06:31:27.603Z,47.70
2022-10-09T06:33:55.429Z,47.70
2022-10-09T06:36:25.276Z,47.60
2022-10-09T06:38:53.592Z,47.70
2022-10-09T06:41:25.914Z,47.60
2022-10-09T06:44:01.190Z,47.70
2022-10-09T06:46:39.604Z,47.70
2022-10-09T06:49:08.077Z,47.80
2022-10-09T06:51:35.908Z,47.80
2022-10-09T06:54:07.307Z,47.90
2022-10-09T06:56:34.047Z,47.80
2022-10-09T06:59:03.043Z,47.90
2022-10-09T07:01:32.131Z,47.90
2022-10-09T07:04:09.070Z,47.90
2022-10-09T07:06:39.946Z,48.10
2022-10-09T07:09:08.871Z,48.20
2022-10-09T07:11:38.454Z,48.20
2022-10-09T07:14:08.275Z,48.90
2022-10-09T07:16:40.396Z,48.30
2022-10-09T07:19:10.954Z,48.40
2022-10-09T07:21:40.212Z,48.50
2022-10-09T07:24:07.697Z,48.60
2022-10-09T07:26:37.085Z,48.70
2022-10-09T07:29:06.031Z,48.90
2022-10-09T07:31:32.752Z,48.90
2022-10-09T07:33:59.908Z,48.90
2022-10-09T07:36:26.763Z,49.10
2022-10-09T07:38:55.693Z,49.30
2022-10-09T07:41:24.370Z,49.30
2022-10-09T07:43:51.192Z,49.40
2022-10-09T07:46:21.027Z,49.70
2022-10-09T07:48:49.002Z,49.70
2022-10-09T07:51:17.095Z,49.80
2022-10-09T07:53:44.982Z,49.90
2022-10-09T07:56:23.440Z,50.10
2022-10-09T07:58:51.876Z,50.20
2022-10-09T08:01:20.576Z,50.10
2022-10-09T08:03:50.235Z,50.20
2022-10-09T08:06:18.051Z,50.30
2022-10-09T08:08:45.431Z,50.30
2022-10-09T08:11:15.076Z,50.50
2022-10-09T08:13:42.581Z,50.60
2022-10-09T08:16:09.635Z,50.60
2022-10-09T08:18:36.923Z,50.80
2022-10-09T08:21:15.290Z,51.20
2022-10-09T08:23:42.182Z,51.30
2022-10-09T08:26:19.876Z,51.30
2022-10-09T08:28:51.252Z,51.10
2022-10-09T08:31:18.521Z,51.10
2022-10-09T08:33:45.416Z,51.10
2022-10-09T08:36:15.238Z,51.20
2022-10-09T08:38:47.919Z,52.20
2022-10-09T08:41:33.138Z,51.50
2022-10-09T08:44:07.206Z,51.10
2022-10-09T08:46:55.588Z,51.50
2022-10-09T08:49:41.968Z,51.70
2022-10-09T08:52:30.590Z,51.40
2022-10-09T08:55:03.913Z,51.30
2022-10-09T08:57:34.380Z,51.50
2022-10-09T09:00:01.157Z,52.00
2022-10-09T09:03:05.299Z,51.60
2022-10-09T09:05:52.736Z,51.60
2022-10-09T09:08:35.247Z,51.20
2022-10-09T09:11:18.112Z,51.40
2022-10-09T09:13:57.200Z,51.50
2022-10-09T09:16:40.155Z,51.50
2022-10-09T09:19:45.702Z,51.70
2022-10-09T09:22:15.112Z,51.50
2022-10-09T09:24:55.196Z,50.70
2022-10-09T09:27:36.652Z,51.10
2022-10-09T09:30:12.320Z,51.30
2022-10-09T09:33:11.299Z,51.50
2022-10-09T09:36:08.920Z,50.90
2022-10-09T09:38:47.810Z,50.90
2022-10-09T09:41:25.795Z,51.20
2022-10-09T09:43:52.549Z,50.70
2022-10-09T09:46:23.984Z,50.90
2022-10-09T09:48:50.821Z,50.90
2022-10-09T09:51:30.236Z,50.80
2022-10-09T09:54:05.593Z,51.20
2022-10-09T09:56:53.162Z,51.40
2022-10-09T09:59:37.339Z,51.00
2022-10-09T10:02:21.146Z,51.80
2022-10-09T10:04:59.182Z,52.10
2022-10-09T10:07:37.024Z,52.00
2022-10-09T10:10:09.778Z,51.50
2022-10-09T10:12:41.461Z,51.80
2022-10-09T10:15:28.536Z,52.10
2022-10-09T10:18:02.613Z,51.30
2022-10-09T10:20:32.509Z,51.40
2022-10-09T10:23:00.492Z,52.20
2022-10-09T10:25:32.516Z,51.70
2022-10-09T10:28:15.476Z,52.10
2022-10-09T10:30:42.706Z,52.20
2022-10-09T10:33:12.615Z,52.10
2022-10-09T10:35:43.286Z,52.40
2022-10-09T10:38:43.603Z,52.70
2022-10-09T10:41:34.010Z,53.10
2022-10-09T10:44:21.191Z,52.60
2022-10-09T10:46:54.161Z,52.20
2022-10-09T10:49:22.888Z,52.30
2022-10-09T10:52:15.448Z,52.80
2022-10-09T10:55:20.130Z,53.20
2022-10-09T10:58:02.504Z,52.70
2022-10-09T11:00:30.950Z,52.90
2022-10-09T11:03:19.115Z,52.90
2022-10-09T11:06:01.489Z,52.70
2022-10-09T11:08:46.655Z,52.80
2022-10-09T11:11:37.837Z,52.80
2022-10-09T11:14:08.868Z,53.10
2022-10-09T11:16:47.118Z,52.70
2022-10-09T11:19:32.911Z,52.30
2022-10-09T11:22:02.796Z,52.80
2022-10-09T11:24:48.504Z,52.90
2022-10-09T11:27:25.326Z,52.80
2022-10-09T11:30:02.476Z,53.10
2022-10-09T11:32:51.334Z,52.80
2022-10-09T11:35:23.132Z,53.20
2022-10-09T11:38:32.884Z,52.20
2022-10-09T11:41:03.902Z,52.50
2022-10-09T11:44:00.715Z,52.00
2022-10-09T11:46:54.137Z,52.40
2022-10-09T11:49:30.190Z,52.10
2022-10-09T11:52:37.963Z,52.00
2022-10-09T11:55:16.272Z,51.90
2022-10-09T11:57:43.030Z,51.90
2022-10-09T12:00:10.706Z,52.00
2022-10-09T12:02:38.521Z,51.80
2022-10-09T12:05:18.705Z,51.90
2022-10-09T12:07:46.009Z,52.20
2022-10-09T12:10:30.716Z,52.00
2022-10-09T12:13:01.135Z,45.60
2022-10-09T12:15:45.186Z,41.60
2022-10-09T12:18:31.457Z,41.90
2022-10-09T12:21:00.977Z,41.30
2022-10-09T12:23:32.708Z,43.00
2022-10-09T12:26:01.634Z,42.30
2022-10-09T12:28:38.951Z,42.80
2022-10-09T12:31:17.330Z,43.90
2022-10-09T12:33:47.958Z,44.30
2022-10-09T12:36:24.971Z,44.00
2022-10-09T12:38:52.073Z,43.40
2022-10-09T12:41:34.250Z,44.40
2022-10-09T12:44:01.927Z,44.80
2022-10-09T12:46:39.248Z,44.10
2022-10-09T12:49:19.669Z,44.90
2022-10-09T12:51:56.433Z,44.30
2022-10-09T12:54:25.418Z,44.70
2022-10-09T12:56:54.969Z,44.40
2022-10-09T12:59:24.746Z,45.00
2022-10-09T13:01:58.239Z,44.00
2022-10-09T13:04:31.955Z,44.90
2022-10-09T13:07:02.883Z,44.90
2022-10-09T13:09:40.472Z,45.20
2022-10-09T13:12:17.924Z,44.50
2022-10-09T13:14:51.833Z,44.30
2022-10-09T13:17:25.732Z,44.10
2022-10-09T13:19:55.140Z,44.60
2022-10-09T13:22:33.752Z,45.60
2022-10-09T13:25:03.506Z,45.70
2022-10-09T13:27:34.631Z,46.00
2022-10-09T13:30:02.236Z,46.00
2022-10-09T13:32:29.037Z,46.00
2022-10-09T13:34:57.974Z,47.40
2022-10-09T13:37:26.345Z,46.30
2022-10-09T13:39:58.523Z,46.40
2022-10-09T13:42:28.406Z,46.50
2022-10-09T13:44:55.221Z,46.10
2022-10-09T13:47:24.632Z,46.40
2022-10-09T13:49:51.724Z,46.60
2022-10-09T13:52:18.706Z,46.30
2022-10-09T13:54:45.486Z,46.30
2022-10-09T13:57:12.473Z,46.80
2022-10-09T13:59:39.993Z,46.50
2022-10-09T14:02:07.177Z,47.00
2022-10-09T14:04:33.928Z,47.20
2022-10-09T14:07:00.679Z,46.90
2022-10-09T14:09:27.446Z,46.80
2022-10-09T14:11:54.419Z,46.70
2022-10-09T14:14:22.501Z,47.90
2022-10-09T14:16:50.697Z,46.80
2022-10-09T14:19:18.063Z,46.90
2022-10-09T14:21:46.844Z,47.60
2022-10-09T14:24:14.517Z,47.00
2022-10-09T14:26:41.332Z,46.40
2022-10-09T14:29:09.309Z,47.00
2022-10-09T14:31:38.426Z,46.70
2022-10-09T14:34:05.555Z,46.00
2022-10-09T14:36:32.302Z,46.50
2022-10-09T14:39:02.156Z,46.70
2022-10-09T14:41:33.175Z,46.70
2022-10-09T14:44:02.454Z,47.50
2022-10-09T14:46:30.065Z,47.90
2022-10-09T14:48:57.793Z,47.50
2022-10-09T14:51:27.019Z,47.30
2022-10-09T14:53:58.301Z,47.00
2022-10-09T14:56:26.361Z,46.80
2022-10-09T14:58:53.317Z,46.80
2022-10-09T15:01:21.678Z,47.10
2022-10-09T15:03:48.977Z,46.90
2022-10-09T15:06:23.963Z,47.10
2022-10-09T15:08:54.555Z,47.10
2022-10-09T15:11:21.326Z,47.40
2022-10-09T15:13:48.047Z,47.40
2022-10-09T15:16:17.751Z,47.60
2022-10-09T15:18:48.911Z,48.00
2022-10-09T15:21:30.285Z,48.20
2022-10-09T15:23:58.818Z,48.20
2022-10-09T15:26:27.592Z,48.70
2022-10-09T15:28:54.636Z,48.70
2022-10-09T15:31:30.464Z,49.00
2022-10-09T15:34:01.093Z,48.80
2022-10-09T15:36:28.876Z,49.10
2022-10-09T15:38:56.610Z,49.50
2022-10-09T15:41:31.153Z,49.30
2022-10-09T15:44:03.728Z,49.40
2022-10-09T15:46:30.953Z,49.60
2022-10-09T15:48:58.605Z,49.90
2022-10-09T15:51:26.082Z,50.10
2022-10-09T15:53:53.212Z,50.10
2022-10-09T15:56:23.020Z,50.10
2022-10-09T15:58:50.796Z,50.30
2022-10-09T16:01:18.348Z,50.50
2022-10-09T16:03:45.812Z,50.50
2022-10-09T16:06:15.709Z,50.60
2022-10-09T16:08:42.929Z,50.80
2022-10-09T16:11:13.658Z,50.80
2022-10-09T16:13:44.145Z,50.80
2022-10-09T16:16:14.663Z,51.10
2022-10-09T16:18:41.399Z,51.30
2022-10-09T16:21:14.081Z,51.20
2022-10-09T16:23:42.366Z,51.30
2022-10-09T16:26:10.766Z,51.40
2022-10-09T16:28:38.138Z,51.50
2022-10-09T16:31:05.270Z,51.60
2022-10-09T16:33:32.161Z,51.70
2022-10-09T16:36:12.177Z,51.90
2022-10-09T16:38:39.463Z,52.00
2022-10-09T16:41:18.031Z,52.00
2022-10-09T16:43:46.775Z,52.20
2022-10-09T16:46:19.406Z,52.90
2022-10-09T16:48:47.267Z,52.70
2022-10-09T16:51:17.624Z,53.20
2022-10-09T16:53:44.501Z,52.80
2022-10-09T16:56:14.388Z,52.90
2022-10-09T16:58:42.511Z,53.00
2022-10-09T17:01:10.920Z,53.10
2022-10-09T17:03:41.612Z,53.20
2022-10-09T17:06:14.232Z,53.20
2022-10-09T17:08:40.968Z,53.30
2022-10-09T17:11:12.790Z,53.20
2022-10-09T17:13:39.936Z,53.30
2022-10-09T17:16:08.457Z,53.40
2022-10-09T17:18:36.177Z,53.30
2022-10-09T17:21:07.547Z,53.40
2022-10-09T17:23:35.112Z,53.40
2022-10-09T17:26:10.082Z,53.50
2022-10-09T17:28:36.952Z,53.40
2022-10-09T17:31:09.463Z,53.30
2022-10-09T17:33:42.045Z,53.40
2022-10-09T17:36:16.140Z,53.40
2022-10-09T17:38:46.199Z,53.40
2022-10-09T17:41:14.712Z,53.40
2022-10-09T17:43:41.870Z,53.30
2022-10-09T17:46:09.346Z,53.30
2022-10-09T17:48:38.320Z,53.30
2022-10-09T17:51:05.259Z,53.30
2022-10-09T17:53:32.350Z,53.20
2022-10-09T17:56:04.221Z,53.20
2022-10-09T17:58:30.998Z,53.10
2022-10-09T18:01:00.490Z,53.00
2022-10-09T18:03:27.264Z,52.90
2022-10-09T18:05:53.995Z,52.90
2022-10-09T18:08:22.165Z,52.80
2022-10-09T18:11:04.204Z,52.80
2022-10-09T18:13:31.470Z,52.70
2022-10-09T18:15:58.685Z,52.70
2022-10-09T18:18:26.169Z,52.70
2022-10-09T18:20:53.392Z,52.60
2022-10-09T18:23:22.699Z,52.60
2022-10-09T18:25:49.721Z,52.50
2022-10-09T18:28:16.529Z,52.60
2022-10-09T18:30:46.092Z,52.50
2022-10-09T18:33:13.742Z,52.40
2022-10-09T18:35:40.810Z,52.30
2022-10-09T18:38:09.597Z,52.30
2022-10-09T18:40:45.735Z,52.10
2022-10-09T18:43:13.190Z,52.10
2022-10-09T18:45:44.572Z,52.10
2022-10-09T18:48:12.160Z,52.00
2022-10-09T18:50:39.358Z,52.00
2022-10-09T18:53:07.855Z,51.80
2022-10-09T18:55:35.111Z,51.80
2022-10-09T18:58:04.841Z,51.70
2022-10-09T19:00:32.188Z,51.70
2022-10-09T19:02:59.517Z,51.70
2022-10-09T19:05:26.680Z,51.70
2022-10-09T19:07:53.372Z,51.60
2022-10-09T19:10:20.551Z,51.50
2022-10-09T19:12:47.737Z,51.50
2022-10-09T19:15:14.504Z,51.50
2022-10-09T19:17:41.263Z,51.40
2022-10-09T19:20:09.036Z,51.30
2022-10-09T19:22:36.247Z,51.30
2022-10-09T19:25:04.624Z,51.30
2022-10-09T19:27:31.935Z,51.30
2022-10-09T19:29:58.917Z,51.20
2022-10-09T19:32:26.273Z,51.10
2022-10-09T19:34:53.087Z,51.60
2022-10-09T19:37:19.929Z,50.90
2022-10-09T19:39:49.690Z,50.90
2022-10-09T19:42:17.758Z,50.90
2022-10-09T19:44:45.823Z,51.00
2022-10-09T19:47:13.800Z,50.80
2022-10-09T19:49:40.601Z,50.80
2022-10-09T19:52:07.841Z,50.80
2022-10-09T19:54:36.667Z,50.70
2022-10-09T19:57:03.645Z,50.60
2022-10-09T19:59:31.198Z,50.60
2022-10-09T20:01:57.950Z,50.70
2022-10-09T20:04:24.916Z,50.50
2022-10-09T20:06:52.008Z,50.50
2022-10-09T20:09:20.735Z,50.40
2022-10-09T20:11:47.667Z,50.40
2022-10-09T20:14:14.554Z,50.30
2022-10-09T20:16:41.368Z,50.30
2022-10-09T20:19:08.295Z,50.20
2022-10-09T20:21:36.393Z,50.30
2022-10-09T20:24:03.272Z,50.30
2022-10-09T20:26:31.565Z,50.10
2022-10-09T20:28:58.629Z,50.10
2022-10-09T20:31:26.989Z,50.00
2022-10-09T20:33:54.745Z,49.90
2022-10-09T20:36:28.253Z,49.90
2022-10-09T20:38:59.971Z,49.90
2022-10-09T20:41:30.558Z,49.80
2022-10-09T20:43:59.614Z,49.70
2022-10-09T20:46:28.070Z,49.70
2022-10-09T20:48:55.002Z,49.70
2022-10-09T20:51:22.993Z,49.60
2022-10-09T20:53:55.762Z,49.50
2022-10-09T20:56:24.408Z,49.60
2022-10-09T20:58:51.528Z,49.50
2022-10-09T21:01:19.317Z,49.40
2022-10-09T21:03:46.118Z,49.30
2022-10-09T21:06:15.704Z,49.30
2022-10-09T21:08:42.525Z,49.30
2022-10-09T21:11:12.099Z,49.20
2022-10-09T21:13:40.019Z,49.20
2022-10-09T21:16:07.791Z,49.20
2022-10-09T21:18:34.582Z,49.00
2022-10-09T21:21:13.564Z,49.00
2022-10-09T21:23:41.525Z,49.00
2022-10-09T21:26:17.618Z,48.90
2022-10-09T21:28:45.042Z,49.50
2022-10-09T21:31:16.676Z,48.80
2022-10-09T21:33:43.763Z,48.80
2022-10-09T21:36:30.185Z,49.30
2022-10-09T21:38:57.306Z,48.70
2022-10-09T21:41:24.456Z,48.70
2022-10-09T21:43:51.199Z,48.60
2022-10-09T21:46:17.927Z,48.60
2022-10-09T21:48:44.706Z,48.50
2022-10-09T21:51:11.410Z,48.50
2022-10-09T21:53:38.162Z,48.50
2022-10-09T21:56:06.046Z,48.40
2022-10-09T21:58:32.728Z,48.40
2022-10-09T22:01:01.140Z,48.40
2022-10-09T22:03:30.037Z,48.40
2022-10-09T22:05:57.288Z,48.40
2022-10-09T22:08:25.191Z,48.30
2022-10-09T22:10:52.293Z,48.30
2022-10-09T22:13:21.130Z,48.20
2022-10-09T22:15:51.181Z,48.20
2022-10-09T22:18:19.587Z,48.20
2022-10-09T22:20:49.147Z,48.20
2022-10-09T22:23:20.369Z,48.10
2022-10-09T22:25:59.320Z,48.10
2022-10-09T22:28:26.234Z,48.10
2022-10-09T22:31:23.365Z,48.00
2022-10-09T22:33:51.916Z,47.90
2022-10-09T22:36:20.857Z,47.90
2022-10-09T22:38:47.637Z,47.90
2022-10-09T22:41:17.251Z,47.80
2022-10-09T22:43:48.691Z,47.80
2022-10-09T22:46:19.196Z,47.70
2022-10-09T22:48:46.327Z,47.60
2022-10-09T22:51:17.802Z,47.70
2022-10-09T22:53:45.434Z,47.70
2022-10-09T22:56:17.713Z,48.10
2022-10-09T22:58:45.257Z,47.50
2022-10-09T23:01:19.115Z,47.50
2022-10-09T23:03:46.084Z,47.50
2022-10-09T23:06:18.644Z,47.50
2022-10-09T23:08:47.097Z,47.40
2022-10-09T23:11:14.999Z,47.50
2022-10-09T23:13:41.869Z,47.30
2022-10-09T23:16:11.352Z,47.20
2022-10-09T23:18:39.423Z,47.40
2022-10-09T23:21:08.887Z,47.40
2022-10-09T23:23:36.005Z,47.30
2022-10-09T23:26:11.126Z,47.30
2022-10-09T23:28:38.388Z,47.20
2022-10-09T23:31:11.340Z,47.20
2022-10-09T23:33:39.791Z,47.10
2022-10-09T23:36:08.157Z,47.10
2022-10-09T23:38:35.493Z,47.10
2022-10-09T23:41:09.063Z,47.10
2022-10-09T23:43:37.525Z,47.10
2022-10-09T23:46:06.672Z,47.10
2022-10-09T23:48:34.044Z,47.00
2022-10-09T23:51:00.898Z,47.00
2022-10-09T23:53:28.161Z,47.00
2022-10-09T23:55:55.017Z,47.00
2022-10-09T23:58:22.513Z,47.00
